Al Ghaydan, Yemen
Current Conditions -  °F | °C
As of 3:50 AM on Saturday 25 Oct 2014 (Local Time) from OOSA Reporting Station
NA  
Wind Chill: 77°   Ceiling: NA
Heat Index: 79°   Visibility: 6mi
Dew Point: 57°   Wind: 1mph
Humidity: 50%   Direction: NA
Pressure: 29.8"   Gusts: NA
Location:  16.21°N, 52.18°E
Report Text: OOSA 250050Z AUTO VRB01KT 9999 25/14 Q1009
Loading
Personal Weather Stations






























Interactive Weather Map
Tropical Storm Tracking
New forecast layout! Learn more

10-Day Weather Forecast

Advertisements
Track Severe Weather on mobile